Time;durP1;ratioP1;P1;durP2;ratioP2;P2;SDS_P1;SDS_P2;PMS_P1;PMS_P2;Temp;Humidity;BMP_temperature;BMP_pressure;BME280_temperature;BME280_humidity;BME280_pressure;Samples;Min_cycle;Max_cycle;Signal;HPM_P1;HPM_P2
2022/03/21 00:00:30;;;;;;;19.60;14.90;;;;;;;11.40;43.52;100231.47;4157245;28;20232;-36
2022/03/21 00:02:32;;;;;;;20.43;14.93;;;;;;;11.61;43.20;100223.16;4146022;28;20636;-34
2022/03/21 00:04:34;;;;;;;20.90;15.60;;;;;;;11.65;43.24;100221.88;4152762;28;20608;-31
2022/03/21 00:06:36;;;;;;;22.23;15.50;;;;;;;11.63;43.02;100229.16;4157057;28;20251;-37
2022/03/21 00:08:38;;;;;;;22.97;15.90;;;;;;;11.64;43.14;100233.50;4152706;28;20232;-36
2022/03/21 00:10:41;;;;;;;24.33;16.70;;;;;;;11.62;43.21;100233.66;4148059;28;20871;-36
2022/03/21 00:12:42;;;;;;;22.03;16.57;;;;;;;11.73;43.22;100230.75;4157004;28;20348;-34
2022/03/21 00:14:44;;;;;;;22.33;16.90;;;;;;;11.45;43.34;100248.66;4152366;28;20228;-34
2022/03/21 00:16:46;;;;;;;23.47;16.83;;;;;;;11.63;43.16;100253.13;4154280;28;20925;-33
2022/03/21 00:18:48;;;;;;;21.43;16.07;;;;;;;11.50;43.59;100249.03;4154130;28;20816;-35
2022/03/21 00:20:53;;;;;;;21.60;16.63;;;;;;;11.37;43.63;100261.91;4158066;28;20236;-32
2022/03/21 00:22:56;;;;;;;20.57;16.50;;;;;;;11.06;44.28;100264.09;4160397;28;20285;-36
2022/03/21 00:24:57;;;;;;;22.60;15.63;;;;;;;10.97;44.42;100264.00;4152081;28;20233;-33
2022/03/21 00:26:59;;;;;;;23.80;16.67;;;;;;;11.00;44.28;100265.50;4157962;28;20239;-32
2022/03/21 00:29:01;;;;;;;23.00;16.83;;;;;;;11.07;44.10;100271.91;4151774;28;20266;-37
2022/03/21 00:31:03;;;;;;;23.07;16.80;;;;;;;10.96;44.43;100274.78;4160496;28;20237;-36
2022/03/21 00:33:04;;;;;;;21.13;15.80;;;;;;;10.97;44.34;100277.28;4151122;28;20741;-33
2022/03/21 00:35:09;;;;;;;20.80;15.63;;;;;;;10.60;45.07;100266.69;4152042;28;20605;-34
2022/03/21 00:37:12;;;;;;;21.30;15.77;;;;;;;10.65;44.86;100267.06;4160780;28;20248;-36
2022/03/21 00:39:14;;;;;;;19.97;15.53;;;;;;;10.74;44.78;100279.47;4158064;28;20312;-36
2022/03/21 00:41:16;;;;;;;23.70;17.10;;;;;;;10.99;44.28;100264.66;4153890;28;20243;-32
2022/03/21 00:43:22;;;;;;;22.50;16.20;;;;;;;10.83;44.49;100277.78;4154084;28;20236;-33
2022/03/21 00:45:25;;;;;;;25.27;16.23;;;;;;;10.55;45.06;100268.91;4154698;28;20232;-32
2022/03/21 00:47:27;;;;;;;21.50;15.83;;;;;;;10.77;44.46;100279.22;4150754;28;20265;-31
2022/03/21 00:49:28;;;;;;;22.13;16.40;;;;;;;10.68;44.63;100273.91;4151939;28;20240;-33
2022/03/21 00:51:30;;;;;;;22.37;16.10;;;;;;;10.40;45.12;100271.22;4158938;28;20694;-35
2022/03/21 00:53:32;;;;;;;22.27;16.03;;;;;;;10.79;44.32;100260.44;4146531;28;20235;-36
2022/03/21 00:55:33;;;;;;;20.37;14.30;;;;;;;10.74;44.43;100260.84;4159673;28;20233;-35
2022/03/21 00:57:36;;;;;;;22.27;16.03;;;;;;;10.71;44.40;100268.28;4154804;28;20228;-32
2022/03/21 00:59:38;;;;;;;23.10;16.00;;;;;;;10.83;44.23;100255.66;4152154;28;20236;-38
2022/03/21 01:01:44;;;;;;;22.13;15.37;;;;;;;10.74;44.33;100262.69;4156063;28;20260;-31
2022/03/21 01:03:46;;;;;;;18.77;14.73;;;;;;;10.77;44.16;100265.09;4148756;28;20715;-36
2022/03/21 01:05:48;;;;;;;22.83;15.53;;;;;;;10.96;44.00;100261.47;4159381;28;20232;-38
2022/03/21 01:07:51;;;;;;;24.07;15.30;;;;;;;10.93;44.08;100267.91;4153811;28;20626;-35
2022/03/21 01:09:53;;;;;;;23.73;15.77;;;;;;;10.97;43.65;100271.97;4158145;28;20271;-35
2022/03/21 01:11:55;;;;;;;21.83;15.60;;;;;;;10.91;43.88;100253.94;4159952;28;20237;-37
2022/03/21 01:13:57;;;;;;;18.67;14.87;;;;;;;10.96;43.69;100267.63;4151141;28;20288;-33
2022/03/21 01:15:59;;;;;;;24.17;15.30;;;;;;;10.93;43.64;100267.91;4156730;28;20717;-36
2022/03/21 01:18:01;;;;;;;20.03;15.50;;;;;;;10.81;43.80;100269.13;4151594;28;20240;-34
2022/03/21 01:20:06;;;;;;;19.30;15.37;;;;;;;10.68;44.41;100263.25;4158723;28;20233;-31
2022/03/21 01:22:07;;;;;;;20.33;14.63;;;;;;;10.52;44.17;100272.72;4160160;28;20238;-31
2022/03/21 01:24:09;;;;;;;21.83;15.37;;;;;;;10.43;44.21;100265.59;4150822;28;20303;-32
2022/03/21 01:26:11;;;;;;;22.23;15.50;;;;;;;10.21;44.58;100267.63;4158775;28;20236;-36
2022/03/21 01:28:13;;;;;;;22.57;15.50;;;;;;;10.46;44.38;100252.00;4157538;28;20241;-36
2022/03/21 01:30:15;;;;;;;20.30;15.13;;;;;;;10.57;43.96;100265.13;4152822;28;20240;-35
2022/03/21 01:32:18;;;;;;;22.00;15.67;;;;;;;10.28;44.62;100261.72;4151350;28;20578;-33
2022/03/21 01:34:19;;;;;;;20.27;15.23;;;;;;;9.98;45.21;100250.34;4157302;28;20279;-38
2022/03/21 01:36:22;;;;;;;19.30;14.60;;;;;;;9.96;45.02;100253.16;4159347;28;20247;-40
2022/03/21 01:38:24;;;;;;;20.73;15.63;;;;;;;10.17;44.98;100244.16;4156337;28;20244;-34
2022/03/21 01:40:26;;;;;;;22.13;14.77;;;;;;;9.98;45.10;100259.16;4148742;28;20254;-36
2022/03/21 01:42:27;;;;;;;20.73;15.47;;;;;;;10.06;45.25;100248.66;4154977;28;20251;-37
2022/03/21 01:44:29;;;;;;;21.23;15.57;;;;;;;9.86;45.17;100263.78;4156446;28;20232;-33
2022/03/21 01:46:31;;;;;;;19.60;14.83;;;;;;;10.56;44.31;100244.00;4143715;28;20591;-35
2022/03/21 01:48:33;;;;;;;19.43;15.37;;;;;;;10.46;44.31;100259.97;4150623;28;20237;-34
2022/03/21 01:50:37;;;;;;;19.90;14.33;;;;;;;10.67;43.84;100264.22;4147042;28;20612;-32
2022/03/21 01:52:40;;;;;;;20.43;15.17;;;;;;;10.73;43.75;100261.00;4148292;28;20233;-35
2022/03/21 01:57:04;;;;;;;18.20;13.97;;;;;;;10.52;44.19;100255.94;4149508;28;20243;-35
2022/03/21 01:59:08;;;;;;;18.87;15.53;;;;;;;10.78;43.63;100258.75;4147125;28;20232;-34
2022/03/21 02:01:10;;;;;;;23.27;14.40;;;;;;;10.61;43.77;100268.31;4151274;28;20240;-36
2022/03/21 02:03:14;;;;;;;21.43;15.10;;;;;;;10.71;43.58;100273.63;4157181;28;20232;-35
2022/03/21 02:05:16;;;;;;;21.30;15.73;;;;;;;10.74;43.73;100266.16;4151957;28;20232;-36
2022/03/21 02:07:18;;;;;;;21.37;15.07;;;;;;;10.83;43.44;100276.94;4147732;28;20704;-35
2022/03/21 02:09:19;;;;;;;22.37;15.73;;;;;;;10.91;43.31;100263.75;4152320;28;20271;-32
2022/03/21 02:11:21;;;;;;;20.67;16.10;;;;;;;10.54;43.84;100281.38;4158938;28;20237;-34
2022/03/21 02:13:23;;;;;;;19.73;14.77;;;;;;;10.43;44.17;100279.75;4155078;28;20307;-33
2022/03/21 02:15:25;;;;;;;19.57;14.63;;;;;;;10.61;43.87;100271.81;4152055;28;20228;-31
2022/03/21 02:17:29;;;;;;;20.83;15.20;;;;;;;10.67;43.87;100264.22;4145777;28;20228;-32
2022/03/21 02:19:32;;;;;;;18.17;14.93;;;;;;;10.59;43.64;100268.47;4146334;28;20582;-34
2022/03/21 02:21:45;;;;;;;19.33;14.33;;;;;;;10.56;43.68;100273.25;4158526;28;20225;-32
2022/03/21 02:24:09;;;;;;;19.30;14.43;;;;;;;10.56;43.96;100249.31;4152303;28;20233;-31
2022/03/21 02:26:10;;;;;;;19.20;14.30;;;;;;;10.88;43.24;100264.88;4149666;28;20240;-33
2022/03/21 02:28:15;;;;;;;21.27;14.70;;;;;;;10.58;43.58;100266.81;4155206;28;20232;-33
2022/03/21 02:30:17;;;;;;;19.23;13.80;;;;;;;10.57;43.59;100267.78;4152621;28;20241;-33
2022/03/21 02:32:20;;;;;;;19.87;14.47;;;;;;;10.72;43.16;100267.31;4152508;28;20229;-36
2022/03/21 02:34:26;;;;;;;17.50;13.33;;;;;;;10.54;43.57;100273.41;4151182;28;20232;-33
2022/03/21 02:36:28;;;;;;;19.30;14.60;;;;;;;10.77;43.17;100263.25;4153732;28;20372;-36
2022/03/21 02:38:31;;;;;;;19.07;13.67;;;;;;;10.50;43.45;100272.03;4150311;28;20292;-36
2022/03/21 02:40:33;;;;;;;20.10;14.20;;;;;;;10.60;43.31;100266.69;4148838;28;20267;-32
2022/03/21 02:42:34;;;;;;;17.67;14.43;;;;;;;10.32;43.39;100282.56;4157982;28;20244;-38
2022/03/21 02:44:38;;;;;;;19.37;13.77;;;;;;;10.73;43.01;100272.47;4143122;28;20248;-37
2022/03/21 02:46:40;;;;;;;20.93;14.30;;;;;;;10.74;42.92;100260.84;4146233;28;20239;-34
2022/03/21 02:48:42;;;;;;;20.00;13.63;;;;;;;10.44;43.03;100276.06;4152939;28;20225;-38
2022/03/21 02:51:14;;;;;;;22.63;14.23;;;;;;;10.62;43.28;100262.88;4155578;28;20229;-34
2022/03/21 02:53:17;;;;;;;20.93;14.33;;;;;;;10.31;43.42;100272.91;4130380;28;20240;-34
2022/03/21 02:55:19;;;;;;;21.20;14.63;;;;;;;10.15;43.79;100272.69;4150895;28;20239;-37
2022/03/21 02:57:21;;;;;;;19.70;15.13;;;;;;;7.73;48.93;100284.09;4147887;28;20781;-34
2022/03/21 02:59:24;;;;;;;21.60;16.10;;;;;;;7.79;49.47;100241.22;4148037;28;20245;-35
2022/03/21 03:01:26;;;;;;;19.17;15.00;;;;;;;8.42;48.67;100237.69;4152360;28;20228;-30
2022/03/21 03:03:28;;;;;;;21.70;16.40;;;;;;;8.76;47.65;100259.47;4153303;28;20365;-36
2022/03/21 03:05:30;;;;;;;20.10;15.07;;;;;;;9.04;47.42;100219.03;4157853;28;20242;-33
2022/03/21 03:07:32;;;;;;;22.13;15.73;;;;;;;9.92;45.43;100227.00;4157479;28;20242;-36
2022/03/21 03:09:33;;;;;;;20.17;14.37;;;;;;;10.27;44.44;100236.16;4158374;28;20236;-38
2022/03/21 03:11:36;;;;;;;18.23;14.33;;;;;;;10.29;44.19;100237.66;4157592;28;20234;-35
2022/03/21 03:13:38;;;;;;;20.13;14.53;;;;;;;8.40;48.02;100272.25;4148956;28;20228;-35
2022/03/21 03:15:40;;;;;;;22.27;15.20;;;;;;;7.31;50.95;100252.28;4155249;28;20295;-33
2022/03/21 03:17:42;;;;;;;22.17;15.33;;;;;;;7.50;50.92;100242.81;4147052;28;20233;-33
2022/03/21 03:19:43;;;;;;;21.00;15.87;;;;;;;7.58;50.80;100232.41;4149739;28;20238;-37
2022/03/21 03:21:48;;;;;;;20.90;15.30;;;;;;;9.49;46.41;100232.59;4157877;28;20278;-34
2022/03/21 03:23:50;;;;;;;19.13;14.63;;;;;;;10.06;44.78;100238.03;4151360;28;20923;-34
2022/03/21 03:26:03;;;;;;;22.43;16.10;;;;;;;10.24;44.35;100243.44;4156477;28;20260;-35
2022/03/21 03:28:05;;;;;;;19.13;14.03;;;;;;;10.24;43.94;100254.06;4157253;28;20244;-32
2022/03/21 03:30:08;;;;;;;21.40;15.20;;;;;;;8.77;46.49;100282.31;4149593;28;20233;-32
2022/03/21 03:32:09;;;;;;;21.23;15.23;;;;;;;7.59;50.59;100255.28;4158204;28;20232;-35
2022/03/21 03:34:11;;;;;;;19.33;15.27;;;;;;;6.85;51.36;100270.00;4148795;28;20233;-33
2022/03/21 03:36:15;;;;;;;19.30;14.70;;;;;;;7.36;51.45;100249.22;4149531;28;20287;-33
2022/03/21 03:38:17;;;;;;;18.73;14.43;;;;;;;8.40;49.61;100240.47;4156240;28;20234;-34
2022/03/21 03:40:20;;;;;;;24.03;15.33;;;;;;;9.68;46.19;100246.88;4146505;28;20240;-34
2022/03/21 03:42:22;;;;;;;18.23;14.33;;;;;;;9.91;45.27;100249.22;4157987;28;20229;-33
2022/03/21 03:44:25;;;;;;;20.20;15.43;;;;;;;10.17;44.85;100241.50;4142248;28;20272;-31
2022/03/21 03:46:27;;;;;;;21.07;15.83;;;;;;;7.55;51.12;100267.94;4147472;28;20233;-32
2022/03/21 03:48:29;;;;;;;21.27;15.37;;;;;;;6.93;52.00;100250.09;4156914;28;20941;-35
2022/03/21 03:50:31;;;;;;;21.57;15.37;;;;;;;7.69;51.33;100239.47;4156901;28;20244;-30
2022/03/21 03:52:33;;;;;;;20.60;14.73;;;;;;;8.91;47.98;100254.63;4160627;28;20236;-30
2022/03/21 03:54:35;;;;;;;21.80;15.23;;;;;;;9.72;45.68;100264.19;4151560;28;20780;-36
2022/03/21 03:56:36;;;;;;;21.07;15.40;;;;;;;10.22;44.99;100244.56;4160913;28;20233;-34
2022/03/21 03:58:39;;;;;;;18.67;15.23;;;;;;;10.21;44.80;100253.50;4155938;28;20702;-33
2022/03/21 04:00:40;;;;;;;21.50;15.90;;;;;;;10.22;44.51;100261.31;4157012;28;20278;-36
2022/03/21 04:05:04;;;;;;;19.87;14.97;;;;;;;10.09;45.34;100265.28;4152072;28;20240;-34
2022/03/21 04:07:05;;;;;;;23.67;15.80;;;;;;;10.12;45.39;100267.66;4160151;28;20229;-34
2022/03/21 04:09:07;;;;;;;20.00;15.10;;;;;;;10.28;44.58;100272.34;4152178;28;20237;-36
2022/03/21 04:11:09;;;;;;;18.00;14.57;;;;;;;9.64;45.53;100304.75;4160685;28;20282;-34
2022/03/21 04:13:10;;;;;;;20.17;15.83;;;;;;;7.87;50.67;100282.09;4158919;28;20247;-32
2022/03/21 04:15:13;;;;;;;21.50;15.37;;;;;;;8.58;49.82;100272.50;4153481;28;20234;-37
2022/03/21 04:17:14;;;;;;;24.47;18.03;;;;;;;9.56;45.33;100279.84;4144988;28;20348;-31
2022/03/21 04:19:16;;;;;;;23.20;16.87;;;;;;;9.12;46.03;100296.97;4152280;28;20331;-37
2022/03/21 04:21:18;;;;;;;20.80;15.77;;;;;;;8.42;48.27;100292.50;4159280;28;20874;-37
2022/03/21 04:23:20;;;;;;;21.13;15.40;;;;;;;9.48;46.66;100267.25;4159912;28;20232;-35
2022/03/21 04:25:21;;;;;;;32.40;23.30;;;;;;;9.92;45.31;100270.34;4160487;28;20700;-33
2022/03/21 04:27:23;;;;;;;32.67;22.23;;;;;;;9.74;45.53;100286.16;4159954;28;20247;-34
2022/03/21 04:29:25;;;;;;;23.87;17.07;;;;;;;9.44;46.54;100281.78;4151912;28;20228;-33
2022/03/21 04:31:27;;;;;;;21.70;15.63;;;;;;;9.62;46.67;100264.22;4160561;28;20292;-35
2022/03/21 04:33:29;;;;;;;19.63;14.57;;;;;;;9.47;46.88;100273.56;4156298;28;20244;-33
2022/03/21 04:35:31;;;;;;;20.17;15.33;;;;;;;10.14;45.19;100279.81;4155088;28;20235;-36
2022/03/21 04:37:32;;;;;;;21.70;16.13;;;;;;;10.22;44.24;100279.94;4156856;28;20300;-33
2022/03/21 04:39:34;;;;;;;19.90;15.13;;;;;;;9.57;45.10;100311.56;4153161;28;20300;-35
2022/03/21 04:41:36;;;;;;;24.90;16.70;;;;;;;8.72;47.44;100329.63;4156526;28;20688;-34
2022/03/21 04:43:37;;;;;;;24.63;18.17;;;;;;;7.59;50.13;100313.50;4155699;28;20594;-35
2022/03/21 04:45:40;;;;;;;22.20;16.47;;;;;;;7.27;50.61;100314.31;4154641;28;20710;-34
2022/03/21 04:47:43;;;;;;;23.90;16.27;;;;;;;8.50;47.31;100314.72;4153726;28;20241;-37
2022/03/21 04:49:45;;;;;;;25.83;17.70;;;;;;;9.27;46.30;100294.75;4152499;28;20773;-36
2022/03/21 04:51:47;;;;;;;21.83;15.90;;;;;;;9.91;44.83;100289.94;4157961;28;20228;-35
2022/03/21 04:53:49;;;;;;;20.77;15.13;;;;;;;10.12;45.03;100291.56;4157833;28;20274;-35
2022/03/21 04:55:51;;;;;;;20.87;15.27;;;;;;;9.91;45.33;100311.19;4151138;28;20240;-31
2022/03/21 04:57:53;;;;;;;20.10;15.27;;;;;;;10.17;44.61;100307.94;4159688;28;20232;-36
2022/03/21 04:59:55;;;;;;;20.53;15.17;;;;;;;10.01;44.68;100319.13;4150885;28;20643;-36
2022/03/21 05:01:56;;;;;;;19.97;15.87;;;;;;;10.18;44.33;100314.94;4159304;28;20235;-35
2022/03/21 05:04:00;;;;;;;24.57;16.73;;;;;;;9.50;45.64;100327.22;4153250;28;21009;-31
2022/03/21 05:06:02;;;;;;;21.67;16.20;;;;;;;8.84;46.49;100367.50;4159476;28;20260;-35
2022/03/21 05:08:04;;;;;;;18.03;14.90;;;;;;;9.67;45.27;100327.50;4151012;28;20285;-32
2022/03/21 05:10:06;;;;;;;21.57;14.97;;;;;;;9.69;45.04;100329.06;4159807;28;20244;-36
2022/03/21 05:12:09;;;;;;;18.17;14.23;;;;;;;9.45;45.39;100340.06;4159826;28;20612;-34
2022/03/21 05:14:11;;;;;;;23.50;15.10;;;;;;;9.50;45.65;100331.66;4158465;28;20236;-35
2022/03/21 05:16:14;;;;;;;20.53;15.43;;;;;;;9.34;45.48;100345.47;4152516;28;20676;-32
2022/03/21 05:18:16;;;;;;;19.83;15.17;;;;;;;9.14;45.75;100341.94;4151315;28;20232;-36
2022/03/21 05:20:18;;;;;;;20.53;14.77;;;;;;;8.74;46.38;100337.44;4153184;28;20255;-35
2022/03/21 05:22:19;;;;;;;19.40;14.50;;;;;;;8.52;46.69;100336.63;4159630;28;20232;-37
2022/03/21 05:31:24;;;;;;;22.37;15.23;;;;;;;9.12;46.40;100342.06;4151449;28;20287;-33
2022/03/21 05:35:55;;;;;;;19.30;14.67;;;;;;;9.04;46.46;100347.19;4158895;28;20232;-33
2022/03/21 05:37:57;;;;;;;20.03;15.00;;;;;;;8.92;46.94;100345.63;4151181;28;20352;-35
2022/03/21 05:40:41;;;;;;;18.50;14.57;;;;;;;8.85;47.37;100349.78;4149785;28;20240;-34
2022/03/21 05:42:23;;;;;;;24.70;14.73;;;;;;;8.75;47.43;100355.88;4150579;28;20352;-36
2022/03/21 05:44:25;;;;;;;19.73;15.33;;;;;;;8.42;48.53;100351.63;4150776;28;20240;-33
2022/03/21 05:46:27;;;;;;;19.80;15.07;;;;;;;8.30;48.54;100361.44;4155672;28;20781;-34
2022/03/21 05:50:51;;;;;;;20.73;14.90;;;;;;;8.50;48.62;100349.19;4140968;28;20677;-34
2022/03/21 05:52:53;;;;;;;17.07;14.43;;;;;;;8.49;48.83;100349.31;4157095;28;20235;-34
2022/03/21 05:54:54;;;;;;;19.97;15.60;;;;;;;8.50;48.79;100356.31;4158556;28;20950;-34
2022/03/21 05:56:56;;;;;;;20.10;15.90;;;;;;;8.37;49.03;100356.50;4151722;28;20229;-32
2022/03/21 06:00:20;;;;;;;20.70;14.47;;;;;;;8.26;49.37;100360.03;4151141;28;20233;-35
2022/03/21 06:01:23;;;;;;;20.50;14.70;;;;;;;8.25;49.41;100353.03;4150142;28;20603;-36
2022/03/21 06:03:26;;;;;;;18.67;14.67;;;;;;;8.13;49.88;100351.44;4143679;28;20229;-34
2022/03/21 06:05:28;;;;;;;21.57;15.33;;;;;;;8.45;49.17;100359.34;4153793;28;20869;-35
2022/03/21 06:07:29;;;;;;;19.17;14.87;;;;;;;8.56;49.16;100345.19;4152327;28;20224;-35
2022/03/21 06:09:31;;;;;;;21.77;15.47;;;;;;;8.51;48.33;100377.38;4154248;28;20667;-32
2022/03/21 06:11:34;;;;;;;21.93;15.43;;;;;;;8.83;48.22;100367.63;4158290;28;20228;-32
2022/03/21 06:13:38;;;;;;;18.77;14.67;;;;;;;8.34;49.10;100377.94;4157886;28;20270;-37
2022/03/21 06:15:40;;;;;;;18.93;14.33;;;;;;;8.87;48.39;100369.88;4155338;28;20315;-36
2022/03/21 06:17:43;;;;;;;19.10;15.00;;;;;;;9.18;47.85;100369.84;4150782;28;20239;-35
2022/03/21 06:19:44;;;;;;;17.93;14.53;;;;;;;9.05;47.80;100387.84;4158510;28;20229;-34
2022/03/21 06:21:46;;;;;;;20.03;15.50;;;;;;;9.09;48.33;100379.47;4152400;28;20229;-35
2022/03/21 06:23:48;;;;;;;18.93;14.50;;;;;;;9.10;48.15;100383.81;4153204;28;20233;-37
2022/03/21 06:25:51;;;;;;;19.77;15.17;;;;;;;9.45;47.72;100377.22;4148432;28;20232;-33
2022/03/21 06:27:53;;;;;;;19.63;15.00;;;;;;;9.36;48.01;100390.47;4148289;28;20236;-34
2022/03/21 06:29:55;;;;;;;19.17;14.27;;;;;;;9.25;48.02;100400.22;4146242;28;20248;-33
2022/03/21 06:31:57;;;;;;;18.53;14.70;;;;;;;9.41;47.51;100393.53;4147015;28;20229;-32
2022/03/21 06:33:58;;;;;;;18.53;14.73;;;;;;;9.29;47.83;100404.25;4157141;28;20240;-34
2022/03/21 06:36:02;;;;;;;20.07;14.80;;;;;;;9.43;47.45;100403.03;4149858;28;20237;-34
2022/03/21 06:38:04;;;;;;;20.67;14.97;;;;;;;9.33;47.92;100400.38;4142366;28;20257;-38
2022/03/21 06:40:07;;;;;;;17.97;14.70;;;;;;;9.38;47.89;100407.91;4145881;28;20241;-37
2022/03/21 06:42:11;;;;;;;17.90;13.90;;;;;;;9.56;47.25;100401.97;4150328;28;20233;-34
2022/03/21 06:44:14;;;;;;;18.07;14.07;;;;;;;9.59;46.80;100402.56;4149346;28;20237;-37
2022/03/21 06:46:15;;;;;;;21.17;15.47;;;;;;;9.78;46.73;100401.75;4143267;28;20237;-32
2022/03/21 06:48:19;;;;;;;17.60;14.03;;;;;;;9.91;46.82;100393.53;4158309;28;20233;-34
2022/03/21 06:50:21;;;;;;;21.00;15.33;;;;;;;10.16;46.81;100386.81;4158208;28;20289;-34
2022/03/21 06:52:23;;;;;;;20.00;14.83;;;;;;;9.92;47.02;100402.31;4150034;28;20887;-32
2022/03/21 06:54:24;;;;;;;20.80;15.37;;;;;;;9.88;46.82;100423.84;4157549;28;20236;-32
2022/03/21 06:56:26;;;;;;;19.33;15.20;;;;;;;9.99;46.45;100414.06;4153438;28;20248;-35
2022/03/21 06:58:29;;;;;;;19.20;15.23;;;;;;;9.78;46.64;100417.69;4149872;28;20252;-36
2022/03/21 07:00:31;;;;;;;20.00;16.93;;;;;;;9.84;46.69;100427.78;4151441;28;20232;-34
2022/03/21 07:02:34;;;;;;;22.17;16.33;;;;;;;9.82;47.16;100419.09;4157369;28;20232;-34
2022/03/21 07:04:36;;;;;;;21.97;16.70;;;;;;;9.85;47.32;100413.50;4151073;28;20221;-38
2022/03/21 07:06:38;;;;;;;21.90;17.17;;;;;;;9.89;46.68;100419.38;4150036;28;20230;-34
2022/03/21 07:08:39;;;;;;;22.07;16.93;;;;;;;9.76;46.31;100448.84;4141566;28;20229;-34
2022/03/21 07:10:44;;;;;;;20.90;17.00;;;;;;;9.61;46.89;100440.44;4155063;28;20840;-35
2022/03/21 07:12:45;;;;;;;22.67;17.90;;;;;;;10.09;46.50;100414.91;4149278;28;20230;-32
2022/03/21 07:14:48;;;;;;;24.63;17.30;;;;;;;10.21;46.46;100416.47;4150999;28;20287;-37
2022/03/21 07:16:50;;;;;;;18.03;14.83;;;;;;;10.11;46.62;100425.41;4147561;28;20232;-35
2022/03/21 07:18:51;;;;;;;19.07;15.27;;;;;;;10.15;46.40;100416.19;4149076;28;20296;-34
2022/03/21 07:20:55;;;;;;;20.57;15.93;;;;;;;10.02;46.36;100424.44;4159952;28;20220;-37
2022/03/21 07:22:58;;;;;;;22.30;17.00;;;;;;;10.07;46.27;100435.47;4152735;28;20232;-32
2022/03/21 07:25:00;;;;;;;21.37;17.20;;;;;;;10.20;46.40;100425.41;4161350;28;20339;-34
2022/03/21 07:27:03;;;;;;;21.30;18.00;;;;;;;10.04;47.18;100441.06;4151357;28;20309;-34
2022/03/21 07:29:05;;;;;;;22.30;16.13;;;;;;;9.73;47.53;100461.56;4150037;28;20232;-32
2022/03/21 07:31:10;;;;;;;20.50;16.03;;;;;;;9.90;47.60;100452.09;4145674;28;20237;-32
2022/03/21 07:33:12;;;;;;;19.60;15.13;;;;;;;9.52;47.47;100465.94;4160578;28;20320;-34
2022/03/21 07:35:14;;;;;;;19.00;14.07;;;;;;;9.49;47.04;100470.69;4160837;28;20240;-37
2022/03/21 07:37:16;;;;;;;18.80;14.50;;;;;;;9.79;47.45;100453.03;4161146;28;20228;-36
2022/03/21 07:39:18;;;;;;;20.33;15.73;;;;;;;9.81;46.91;100459.91;4155420;28;20240;-31
2022/03/21 07:41:23;;;;;;;16.57;14.20;;;;;;;10.06;46.42;100447.09;4152122;28;20239;-33
2022/03/21 07:43:25;;;;;;;18.27;12.90;;;;;;;10.04;46.00;100449.88;4149168;28;20767;-34
2022/03/21 07:47:47;;;;;;;19.70;13.47;;;;;;;10.10;45.69;100463.59;4150262;28;20235;-34
2022/03/21 07:49:53;;;;;;;18.83;13.40;;;;;;;10.44;45.42;100440.09;4161054;28;20232;-36
2022/03/21 07:51:55;;;;;;;21.37;14.70;;;;;;;10.41;46.12;100446.53;4152475;28;20230;-33
2022/03/21 07:53:57;;;;;;;25.70;19.43;;;;;;;10.62;45.69;100433.06;4151756;28;20264;-32
2022/03/21 07:55:59;;;;;;;33.67;22.87;;;;;;;10.26;45.81;100458.56;4153800;28;20604;-34
2022/03/21 07:58:03;;;;;;;34.60;23.00;;;;;;;10.29;46.00;100462.75;4156744;28;20705;-33
2022/03/21 08:00:06;;;;;;;23.93;17.07;;;;;;;9.65;48.16;100489.63;4144060;28;20239;-36
2022/03/21 08:02:07;;;;;;;24.00;18.67;;;;;;;9.64;46.81;100490.63;4160979;28;20234;-36
2022/03/21 08:04:09;;;;;;;16.53;13.70;;;;;;;10.16;46.63;100468.34;4160450;28;20272;-35
2022/03/21 08:06:11;;;;;;;18.77;13.50;;;;;;;10.03;48.01;100479.25;4142415;28;20237;-32
2022/03/21 08:08:14;;;;;;;17.80;13.80;;;;;;;10.32;47.13;100451.84;4158811;28;20243;-30
2022/03/21 08:10:16;;;;;;;18.13;13.37;;;;;;;9.65;48.03;100491.44;4152551;28;20233;-32
2022/03/21 08:12:19;;;;;;;16.37;13.63;;;;;;;10.29;46.32;100468.06;4154827;28;20763;-34
2022/03/21 08:14:21;;;;;;;17.73;14.67;;;;;;;9.20;48.65;100518.31;4157483;28;20232;-36
2022/03/21 08:16:23;;;;;;;18.77;13.90;;;;;;;9.76;48.42;100466.63;4150126;28;21872;-31
2022/03/21 08:18:25;;;;;;;18.60;14.13;;;;;;;10.48;47.17;100449.47;4147127;28;20225;-32
2022/03/21 08:20:33;;;;;;;17.47;13.73;;;;;;;10.96;46.28;100429.94;4158926;28;20240;-33
2022/03/21 08:22:35;;;;;;;18.07;14.03;;;;;;;11.46;45.39;100401.28;4148724;28;20676;-35
2022/03/21 08:24:37;;;;;;;17.17;13.80;;;;;;;11.63;45.10;100403.16;4159975;28;20267;-32
2022/03/21 08:26:40;;;;;;;18.37;13.80;;;;;;;11.28;45.07;100427.88;4157158;28;20229;-33
2022/03/21 08:28:41;;;;;;;17.43;13.80;;;;;;;11.44;44.75;100422.75;4152165;28;20233;-35
2022/03/21 08:30:43;;;;;;;17.70;14.03;;;;;;;11.50;44.64;100424.81;4159298;28;20239;-33
2022/03/21 08:32:46;;;;;;;20.03;13.83;;;;;;;11.14;45.97;100448.66;4151758;28;20233;-33
2022/03/21 08:34:48;;;;;;;16.50;13.17;;;;;;;11.29;44.94;100438.38;4157713;28;20310;-34
2022/03/21 08:36:50;;;;;;;17.33;13.37;;;;;;;10.77;46.51;100477.88;4152070;28;20205;-35
2022/03/21 08:38:52;;;;;;;16.43;13.20;;;;;;;10.95;46.40;100446.03;4158994;28;20208;-39
2022/03/21 08:40:55;;;;;;;19.03;14.27;;;;;;;11.91;44.29;100398.66;4151304;28;20722;-33
2022/03/21 08:42:57;;;;;;;16.23;13.07;;;;;;;11.84;44.35;100404.69;4155919;28;20733;-35
2022/03/21 08:44:59;;;;;;;18.70;12.83;;;;;;;11.73;43.73;100417.25;4143764;28;20607;-31
2022/03/21 08:47:00;;;;;;;20.33;14.30;;;;;;;11.58;43.95;100436.53;4143046;28;20236;-35
2022/03/21 08:51:33;;;;;;;20.40;13.97;;;;;;;11.58;44.01;100448.03;4155975;28;20239;-35
2022/03/21 08:53:34;;;;;;;21.50;15.60;;;;;;;11.71;44.46;100439.69;4155341;28;20302;-35
2022/03/21 08:55:36;;;;;;;17.60;13.90;;;;;;;12.07;43.75;100416.63;4159720;28;20232;-32
2022/03/21 08:57:38;;;;;;;16.87;13.90;;;;;;;11.63;46.16;100453.75;4160026;28;20237;-33
2022/03/21 08:59:40;;;;;;;18.40;13.47;;;;;;;11.74;43.96;100456.19;4141340;28;20241;-34
2022/03/21 09:01:42;;;;;;;18.97;12.93;;;;;;;11.78;43.93;100454.09;4140370;28;20860;-34
2022/03/21 09:03:44;;;;;;;18.33;14.10;;;;;;;12.34;43.41;100406.03;4142028;28;20291;-38
2022/03/21 09:05:48;;;;;;;15.73;13.47;;;;;;;12.55;42.79;100400.31;4144968;28;20296;-35
2022/03/21 09:07:50;;;;;;;19.07;13.00;;;;;;;12.23;42.90;100423.06;4152966;28;20240;-31
2022/03/21 09:09:52;;;;;;;18.40;13.67;;;;;;;12.19;42.78;100429.72;4152124;28;20244;-37
2022/03/21 09:11:54;;;;;;;18.57;13.43;;;;;;;12.73;42.27;100398.44;4151638;28;20232;-40
2022/03/21 09:13:56;;;;;;;16.10;13.10;;;;;;;12.26;45.00;100441.44;4145815;28;20241;-35
2022/03/21 09:15:57;;;;;;;17.47;13.77;;;;;;;12.54;42.92;100409.31;4158863;28;20232;-36
2022/03/21 09:18:01;;;;;;;17.87;13.20;;;;;;;12.54;43.11;100417.31;4159607;28;20242;-34
2022/03/21 09:20:03;;;;;;;16.90;12.90;;;;;;;12.87;42.30;100404.22;4158954;28;20282;-36
2022/03/21 09:22:05;;;;;;;17.27;14.10;;;;;;;12.88;42.07;100397.91;4159134;28;20319;-35
2022/03/21 09:24:07;;;;;;;18.23;13.60;;;;;;;12.61;43.16;100426.38;4151297;28;20316;-36
2022/03/21 09:26:10;;;;;;;17.63;13.63;;;;;;;12.83;43.71;100420.53;4157761;28;20235;-33
2022/03/21 09:28:12;;;;;;;16.57;12.87;;;;;;;13.12;43.21;100397.19;4146104;28;20233;-35
2022/03/21 09:30:14;;;;;;;18.40;14.20;;;;;;;13.31;41.71;100382.75;4159359;28;20236;-38
2022/03/21 09:32:16;;;;;;;19.17;14.47;;;;;;;13.26;41.80;100385.06;4157016;28;20838;-35
2022/03/21 09:34:18;;;;;;;18.13;13.17;;;;;;;12.68;43.99;100438.09;4151254;28;20229;-38
2022/03/21 09:36:20;;;;;;;17.97;12.97;;;;;;;12.79;43.20;100432.53;4151127;28;20237;-34
2022/03/21 09:38:22;;;;;;;19.40;14.60;;;;;;;13.21;42.26;100405.09;4151568;28;20268;-38
2022/03/21 09:40:24;;;;;;;17.33;13.30;;;;;;;13.08;44.12;100417.19;4154304;28;20237;-35